Time;durP1;ratioP1;P1;durP2;ratioP2;P2;SDS_P1;SDS_P2;PMS_P1;PMS_P2;Temp;Humidity;BMP_temperature;BMP_pressure;BME280_temperature;BME280_humidity;BME280_pressure;Samples;Min_cycle;Max_cycle;Signal;HPM_P1;HPM_P2
2021/08/28 00:01:20;;;;;;;1.90;1.70;;;12.50;99.90;;;;;;4948964;28;20190;-66
2021/08/28 00:03:45;;;;;;;1.55;1.45;;;12.50;99.90;;;;;;4947915;28;20277;-68
2021/08/28 00:06:11;;;;;;;2.33;1.63;;;12.50;99.90;;;;;;4948646;28;20213;-69
2021/08/28 00:08:36;;;;;;;2.28;1.73;;;12.50;99.90;;;;;;4947005;28;20669;-68
2021/08/28 00:11:02;;;;;;;1.83;1.73;;;12.60;99.90;;;;;;4948555;28;20186;-67
2021/08/28 00:13:28;;;;;;;2.92;1.63;;;12.60;99.90;;;;;;4955255;28;20268;-66
2021/08/28 00:15:53;;;;;;;2.05;1.90;;;12.60;99.90;;;;;;4957154;28;20603;-67
2021/08/28 00:18:19;;;;;;;4.60;1.83;;;12.60;99.90;;;;;;4947380;28;20205;-68
2021/08/28 00:20:45;;;;;;;3.42;2.00;;;12.60;99.90;;;;;;4953534;28;20181;-68
2021/08/28 00:23:10;;;;;;;1.75;1.65;;;12.60;99.90;;;;;;4950585;28;20190;-67
2021/08/28 00:25:36;;;;;;;1.70;1.60;;;12.60;99.90;;;;;;4947751;28;20185;-67
2021/08/28 00:28:03;;;;;;;2.65;1.80;;;12.60;99.90;;;;;;4948001;28;20260;-68
2021/08/28 00:30:28;;;;;;;1.70;1.60;;;12.60;99.90;;;;;;4952101;28;20223;-69
2021/08/28 00:32:54;;;;;;;1.65;1.40;;;12.60;99.90;;;;;;4953308;28;20213;-68
2021/08/28 00:35:20;;;;;;;1.70;1.60;;;12.60;99.90;;;;;;4948833;28;20201;-67
2021/08/28 00:37:45;;;;;;;1.40;1.30;;;12.50;99.90;;;;;;4946572;28;20263;-68
2021/08/28 00:40:11;;;;;;;1.77;1.65;;;12.50;99.90;;;;;;4950365;28;20265;-68
2021/08/28 00:42:51;;;;;;;1.52;1.42;;;12.60;99.90;;;;;;4947594;28;20318;-69
2021/08/28 00:45:17;;;;;;;1.92;1.83;;;12.50;99.90;;;;;;4945965;28;20581;-69
2021/08/28 00:48:02;;;;;;;3.55;1.77;;;12.50;99.90;;;;;;4947839;28;20213;-67
2021/08/28 00:50:33;;;;;;;2.30;1.75;;;12.50;99.90;;;;;;4948207;28;20193;-67
2021/08/28 00:53:01;;;;;;;2.22;2.03;;;12.50;99.90;;;;;;4948907;28;20182;-69
2021/08/28 00:55:27;;;;;;;2.08;1.92;;;12.50;99.90;;;;;;4952271;28;20182;-68
2021/08/28 00:57:57;;;;;;;3.95;1.92;;;12.50;99.90;;;;;;4947429;28;20202;-68
2021/08/28 01:00:23;;;;;;;1.88;1.77;;;12.50;99.90;;;;;;4947656;28;20209;-69
2021/08/28 01:02:51;;;;;;;1.98;1.77;;;12.50;99.90;;;;;;4947268;28;20196;-68
2021/08/28 01:05:16;;;;;;;1.83;1.70;;;12.50;99.90;;;;;;4950010;28;20700;-66
2021/08/28 01:08:00;;;;;;;1.70;1.60;;;12.50;99.90;;;;;;4952052;28;20304;-68
2021/08/28 01:10:33;;;;;;;2.10;1.90;;;12.50;99.90;;;;;;4953391;28;20669;-67
2021/08/28 01:13:02;;;;;;;1.92;1.70;;;12.50;99.90;;;;;;4946990;28;20642;-65
2021/08/28 01:15:28;;;;;;;3.13;2.00;;;12.50;99.90;;;;;;4946725;28;20232;-67
2021/08/28 01:17:56;;;;;;;1.88;1.77;;;12.50;99.90;;;;;;4946926;28;20645;-68
2021/08/28 01:20:46;;;;;;;1.95;1.85;;;12.40;99.90;;;;;;4947259;28;20794;-65
2021/08/28 01:23:12;;;;;;;6.22;1.92;;;12.40;99.90;;;;;;4946595;28;20306;-66
2021/08/28 01:25:40;;;;;;;3.45;1.73;;;12.40;99.90;;;;;;4946640;28;20186;-69
2021/08/28 01:28:09;;;;;;;1.73;1.63;;;12.40;99.90;;;;;;4946755;28;20205;-69
2021/08/28 01:30:38;;;;;;;2.38;1.92;;;12.40;99.90;;;;;;4946452;28;20237;-67
2021/08/28 01:33:05;;;;;;;4.15;1.98;;;12.30;99.90;;;;;;4952793;28;20182;-69
2021/08/28 01:35:32;;;;;;;1.77;1.67;;;12.40;99.90;;;;;;4956374;28;20189;-67
2021/08/28 01:37:59;;;;;;;2.30;2.08;;;12.30;99.90;;;;;;4946692;28;20690;-68
2021/08/28 01:40:27;;;;;;;2.22;1.63;;;12.40;99.90;;;;;;4947084;28;20248;-67
2021/08/28 01:42:53;;;;;;;1.73;1.63;;;12.30;99.90;;;;;;4946622;28;20205;-68
2021/08/28 01:45:25;;;;;;;2.20;2.00;;;12.30;99.90;;;;;;4966157;28;20188;-68
2021/08/28 01:47:52;;;;;;;2.20;1.95;;;12.30;99.90;;;;;;4946509;28;20657;-68
2021/08/28 01:50:21;;;;;;;2.17;1.98;;;12.30;99.90;;;;;;4946837;28;20272;-67
2021/08/28 01:52:49;;;;;;;2.42;1.83;;;12.30;99.90;;;;;;4948499;28;20196;-66
2021/08/28 01:55:15;;;;;;;2.78;1.80;;;12.30;99.90;;;;;;4965486;28;20252;-67
2021/08/28 01:57:41;;;;;;;2.33;2.00;;;12.30;99.90;;;;;;4949145;28;20213;-68
2021/08/28 02:00:07;;;;;;;2.83;1.92;;;12.30;99.90;;;;;;4946913;28;20214;-67
2021/08/28 02:02:33;;;;;;;4.28;1.98;;;12.30;99.90;;;;;;4946459;28;20554;-67
2021/08/28 02:05:00;;;;;;;1.90;1.70;;;12.30;99.90;;;;;;4952475;28;20185;-68
2021/08/28 02:07:48;;;;;;;1.55;1.45;;;12.30;99.90;;;;;;4951997;28;20256;-69
2021/08/28 02:10:23;;;;;;;1.85;1.75;;;12.30;99.90;;;;;;4947932;28;20208;-68
2021/08/28 02:12:59;;;;;;;3.13;2.10;;;12.40;99.90;;;;;;4947589;28;20663;-67
2021/08/28 02:15:34;;;;;;;2.15;1.95;;;12.50;99.90;;;;;;4946221;28;20197;-68
2021/08/28 02:18:05;;;;;;;2.85;2.10;;;12.50;99.90;;;;;;4945595;28;20220;-67
2021/08/28 02:20:37;;;;;;;1.58;1.48;;;12.50;99.90;;;;;;4946646;28;20266;-68
2021/08/28 02:23:07;;;;;;;1.73;1.63;;;12.50;99.90;;;;;;4951464;28;20189;-68
2021/08/28 02:25:46;;;;;;;4.05;2.00;;;12.50;99.90;;;;;;4948358;28;20273;-67
2021/08/28 02:28:16;;;;;;;2.33;1.80;;;12.50;99.90;;;;;;4957022;28;20187;-67
2021/08/28 02:30:44;;;;;;;2.88;1.90;;;12.50;99.90;;;;;;4951590;28;20186;-68
2021/08/28 02:33:11;;;;;;;2.17;1.98;;;12.40;99.90;;;;;;4965329;28;20389;-67
2021/08/28 02:35:37;;;;;;;3.85;2.38;;;12.40;99.90;;;;;;4956924;28;20621;-66
2021/08/28 02:38:05;;;;;;;3.85;2.42;;;12.40;99.90;;;;;;4966348;28;20237;-68
2021/08/28 02:40:33;;;;;;;1.88;1.67;;;12.40;99.90;;;;;;4953395;28;20197;-68
2021/08/28 02:42:59;;;;;;;2.72;1.95;;;12.50;99.90;;;;;;4953983;28;20178;-67
2021/08/28 02:45:26;;;;;;;1.85;1.75;;;12.60;99.90;;;;;;4953601;28;20240;-68
2021/08/28 02:47:53;;;;;;;2.25;2.00;;;12.60;99.90;;;;;;4950871;28;20308;-66
2021/08/28 02:50:20;;;;;;;2.17;1.95;;;12.60;99.90;;;;;;4970657;28;20553;-66
2021/08/28 02:52:48;;;;;;;1.95;1.52;;;12.60;99.90;;;;;;4954361;28;20678;-68
2021/08/28 02:55:16;;;;;;;3.67;2.08;;;12.60;99.90;;;;;;4955641;28;20221;-68
2021/08/28 02:57:45;;;;;;;2.55;1.88;;;12.60;99.90;;;;;;4960587;28;20276;-67
2021/08/28 03:00:12;;;;;;;1.80;1.70;;;12.60;99.90;;;;;;4958597;28;20308;-68
2021/08/28 03:02:38;;;;;;;1.95;1.63;;;12.70;99.90;;;;;;4954522;28;20203;-68
2021/08/28 03:05:10;;;;;;;3.05;1.95;;;12.70;99.90;;;;;;4957389;28;20192;-68
2021/08/28 03:07:36;;;;;;;2.00;1.90;;;12.70;99.90;;;;;;4959704;28;20212;-67
2021/08/28 03:10:03;;;;;;;2.75;2.00;;;12.70;99.90;;;;;;4960253;28;20212;-66
2021/08/28 03:12:29;;;;;;;1.80;1.70;;;12.70;99.90;;;;;;4960746;28;20717;-67
2021/08/28 03:14:54;;;;;;;1.60;1.50;;;12.70;99.90;;;;;;4950055;28;20212;-67
2021/08/28 03:17:20;;;;;;;1.60;1.40;;;12.70;99.90;;;;;;4954419;28;20216;-66
2021/08/28 03:19:48;;;;;;;2.05;1.88;;;12.70;99.90;;;;;;4952997;28;20709;-66
2021/08/28 03:22:19;;;;;;;1.90;1.58;;;12.70;99.90;;;;;;4955798;28;20272;-65
2021/08/28 03:24:47;;;;;;;1.80;1.70;;;12.70;99.90;;;;;;4951571;28;20204;-68
2021/08/28 03:27:15;;;;;;;2.22;2.03;;;12.60;99.90;;;;;;4950510;28;20228;-68
2021/08/28 03:29:43;;;;;;;5.50;2.25;;;12.70;99.90;;;;;;4955663;28;20205;-66
2021/08/28 03:32:09;;;;;;;1.65;1.55;;;12.60;99.90;;;;;;4963221;28;20189;-68
2021/08/28 03:34:36;;;;;;;2.45;1.88;;;12.60;99.90;;;;;;4958070;28;20619;-67
2021/08/28 03:37:02;;;;;;;2.35;1.90;;;12.60;99.90;;;;;;4953643;28;20206;-66
2021/08/28 03:39:28;;;;;;;2.08;1.90;;;12.60;99.90;;;;;;4960530;28;20216;-68
2021/08/28 03:41:54;;;;;;;1.73;1.63;;;12.60;99.90;;;;;;4954545;28;20189;-67
2021/08/28 03:44:20;;;;;;;2.25;1.95;;;12.60;99.90;;;;;;4951324;28;20264;-69
2021/08/28 03:46:47;;;;;;;3.08;2.03;;;12.60;99.90;;;;;;4953296;28;20288;-66
2021/08/28 03:49:13;;;;;;;2.17;1.95;;;12.60;99.90;;;;;;4950824;28;20680;-68
2021/08/28 03:51:39;;;;;;;3.67;2.35;;;12.60;99.90;;;;;;4952258;28;20194;-68
2021/08/28 03:54:04;;;;;;;2.55;2.35;;;12.60;99.90;;;;;;4956360;28;20275;-68
2021/08/28 03:56:31;;;;;;;2.00;1.85;;;12.60;99.90;;;;;;4949364;28;20440;-68
2021/08/28 03:58:57;;;;;;;2.08;1.88;;;12.60;99.90;;;;;;4951784;28;20212;-66
2021/08/28 04:01:23;;;;;;;3.38;2.20;;;12.60;99.90;;;;;;4958432;28;20189;-69
2021/08/28 04:03:48;;;;;;;1.92;1.83;;;12.60;99.90;;;;;;4960975;28;20185;-67
2021/08/28 04:06:14;;;;;;;2.22;2.00;;;12.60;99.90;;;;;;4955144;28;20727;-65
2021/08/28 04:08:39;;;;;;;1.70;1.60;;;12.50;99.90;;;;;;4952501;28;20181;-68
2021/08/28 04:11:05;;;;;;;2.45;1.80;;;12.50;99.90;;;;;;4949154;28;20252;-68
2021/08/28 04:13:31;;;;;;;2.10;1.85;;;12.50;99.90;;;;;;4951061;28;20316;-67
2021/08/28 04:15:57;;;;;;;2.78;1.95;;;12.60;99.90;;;;;;4951870;28;20190;-66
2021/08/28 04:18:22;;;;;;;2.17;1.98;;;12.60;99.90;;;;;;4952539;28;20621;-67
2021/08/28 04:20:48;;;;;;;2.03;1.85;;;12.60;99.90;;;;;;4959383;28;20301;-68
2021/08/28 04:23:13;;;;;;;1.98;1.88;;;12.60;99.90;;;;;;4949012;28;20186;-67
2021/08/28 04:25:39;;;;;;;2.72;1.90;;;12.50;99.90;;;;;;4948612;28;20641;-66
2021/08/28 04:28:05;;;;;;;2.78;1.67;;;12.50;99.90;;;;;;4953765;28;20292;-68
2021/08/28 04:30:32;;;;;;;2.38;2.17;;;12.50;99.90;;;;;;4957640;28;20292;-66
2021/08/28 04:32:58;;;;;;;2.40;2.15;;;12.60;99.90;;;;;;4948781;28;20182;-66
2021/08/28 04:35:24;;;;;;;2.35;2.13;;;12.60;99.90;;;;;;4971063;28;20193;-68
2021/08/28 04:37:50;;;;;;;2.17;1.98;;;12.60;99.90;;;;;;4955054;28;20716;-67
2021/08/28 04:40:15;;;;;;;5.78;1.80;;;12.60;99.90;;;;;;4948700;28;20240;-68
2021/08/28 04:42:41;;;;;;;2.10;1.98;;;12.70;99.90;;;;;;4955032;28;20185;-66
2021/08/28 04:45:07;;;;;;;2.25;2.05;;;12.70;99.90;;;;;;4948404;28;20672;-68
2021/08/28 04:47:33;;;;;;;2.10;2.00;;;12.70;99.90;;;;;;4962538;28;20590;-68
2021/08/28 04:49:59;;;;;;;3.05;2.38;;;12.80;99.90;;;;;;4963545;28;20194;-67
2021/08/28 04:52:24;;;;;;;2.50;2.30;;;12.80;99.90;;;;;;4947245;28;20602;-67
2021/08/28 04:54:50;;;;;;;2.00;1.80;;;12.80;99.90;;;;;;4957766;28;20189;-68
2021/08/28 04:57:16;;;;;;;2.60;2.40;;;12.80;99.90;;;;;;4949262;28;20213;-65
2021/08/28 04:59:41;;;;;;;2.50;2.30;;;12.80;99.90;;;;;;4954858;28;20212;-67
2021/08/28 05:02:08;;;;;;;2.42;2.22;;;12.80;99.90;;;;;;4964800;28;20279;-67
2021/08/28 05:04:34;;;;;;;2.33;2.13;;;12.80;99.90;;;;;;4951231;28;20602;-67
2021/08/28 05:06:59;;;;;;;2.38;1.98;;;12.90;99.90;;;;;;4948226;28;20225;-68
2021/08/28 05:09:25;;;;;;;3.42;2.30;;;12.80;99.90;;;;;;4948464;28;20240;-66
2021/08/28 05:11:51;;;;;;;2.60;2.08;;;12.90;99.90;;;;;;4949311;28;20193;-65
2021/08/28 05:14:17;;;;;;;2.03;1.83;;;12.90;99.90;;;;;;4954207;28;20273;-68
2021/08/28 05:16:42;;;;;;;1.98;1.77;;;13.00;99.90;;;;;;4949003;28;20687;-67
2021/08/28 05:19:08;;;;;;;2.55;1.73;;;13.10;99.90;;;;;;4948613;28;20224;-68
2021/08/28 05:21:33;;;;;;;2.22;2.03;;;13.10;99.90;;;;;;4956419;28;20186;-69
2021/08/28 05:23:59;;;;;;;2.03;1.90;;;13.20;99.90;;;;;;4947802;28;20233;-68
2021/08/28 05:26:25;;;;;;;2.85;1.70;;;13.20;99.90;;;;;;4949887;28;20252;-66
2021/08/28 05:28:51;;;;;;;2.40;1.67;;;13.20;99.90;;;;;;4947817;28;20229;-68
2021/08/28 05:31:16;;;;;;;1.67;1.58;;;13.30;99.90;;;;;;4956565;28;20185;-68
2021/08/28 05:33:42;;;;;;;1.63;1.50;;;13.30;99.90;;;;;;4953026;28;20610;-68
2021/08/28 05:36:07;;;;;;;1.90;1.80;;;13.30;99.90;;;;;;4952808;28;20212;-66
2021/08/28 05:38:33;;;;;;;1.85;1.45;;;13.40;99.90;;;;;;4960343;28;20205;-69
2021/08/28 05:41:00;;;;;;;1.70;1.60;;;13.50;99.90;;;;;;4947956;28;20189;-67
2021/08/28 05:43:26;;;;;;;3.67;2.30;;;13.50;99.90;;;;;;4949047;28;20669;-67
2021/08/28 05:45:51;;;;;;;2.63;1.63;;;13.60;99.90;;;;;;4950256;28;20201;-68
2021/08/28 05:48:17;;;;;;;1.92;1.83;;;13.70;99.90;;;;;;4948870;28;20661;-66
2021/08/28 05:50:43;;;;;;;2.25;1.80;;;13.70;99.90;;;;;;4954473;28;20188;-68
2021/08/28 05:53:08;;;;;;;1.95;1.85;;;13.80;99.90;;;;;;4954233;28;20241;-68
2021/08/28 05:55:34;;;;;;;2.30;2.10;;;13.80;99.90;;;;;;4947305;28;20193;-68
2021/08/28 05:58:00;;;;;;;1.90;1.75;;;13.90;99.90;;;;;;4950462;28;20276;-67
2021/08/28 06:00:25;;;;;;;2.10;1.90;;;14.00;99.90;;;;;;4955466;28;20220;-68
2021/08/28 06:02:51;;;;;;;3.67;2.03;;;14.00;99.90;;;;;;4950486;28;20196;-68
2021/08/28 06:05:16;;;;;;;1.77;1.67;;;14.10;99.90;;;;;;4946852;28;20599;-66
2021/08/28 06:07:42;;;;;;;2.33;2.13;;;14.20;99.90;;;;;;4953532;28;20203;-68
2021/08/28 06:10:08;;;;;;;2.10;1.90;;;14.20;99.90;;;;;;4948519;28;20189;-66
2021/08/28 06:12:35;;;;;;;3.08;1.77;;;14.30;99.90;;;;;;4957760;28;20207;-67
2021/08/28 06:15:01;;;;;;;1.77;1.67;;;14.30;99.90;;;;;;4946486;28;20597;-66
2021/08/28 06:17:27;;;;;;;2.15;1.95;;;14.30;99.90;;;;;;4959476;28;20215;-67
2021/08/28 06:19:53;;;;;;;2.20;2.00;;;14.50;99.90;;;;;;4961685;28;20204;-68
2021/08/28 06:22:19;;;;;;;1.75;1.65;;;14.60;99.90;;;;;;4961031;28;20192;-69
2021/08/28 06:24:44;;;;;;;1.70;1.60;;;14.60;99.90;;;;;;4952864;28;20620;-67
2021/08/28 06:27:10;;;;;;;2.13;1.80;;;14.60;99.90;;;;;;4959815;28;20208;-68
2021/08/28 06:29:36;;;;;;;1.90;1.80;;;14.70;99.90;;;;;;4976133;28;20199;-67
2021/08/28 06:32:03;;;;;;;1.70;1.60;;;14.70;99.90;;;;;;4963210;28;20177;-65
2021/08/28 06:34:29;;;;;;;2.50;1.98;;;14.90;99.90;;;;;;4955242;28;20200;-68
2021/08/28 06:36:55;;;;;;;2.28;2.08;;;14.90;99.90;;;;;;4954081;28;20201;-66
2021/08/28 06:39:20;;;;;;;1.75;1.65;;;15.00;99.90;;;;;;4968116;28;20711;-69
2021/08/28 06:41:46;;;;;;;1.70;1.60;;;15.00;99.90;;;;;;4952011;28;20189;-66
2021/08/28 06:44:12;;;;;;;1.50;1.38;;;15.10;99.90;;;;;;4951989;28;20641;-65
2021/08/28 06:46:37;;;;;;;1.73;1.63;;;15.20;99.90;;;;;;4957319;28;20205;-68
2021/08/28 06:49:03;;;;;;;1.50;1.40;;;15.30;99.90;;;;;;4954711;28;20217;-66
2021/08/28 06:51:29;;;;;;;1.50;1.40;;;15.40;99.90;;;;;;4949246;28;20197;-68
2021/08/28 06:53:55;;;;;;;1.55;1.45;;;15.50;99.90;;;;;;4952970;28;20192;-69
2021/08/28 06:56:21;;;;;;;1.50;1.40;;;15.60;99.90;;;;;;4952708;28;20644;-68
2021/08/28 06:58:46;;;;;;;1.55;1.40;;;15.80;99.90;;;;;;4961159;28;20307;-67
2021/08/28 07:01:12;;;;;;;1.30;1.20;;;15.90;99.90;;;;;;4958126;28;20197;-70
2021/08/28 07:03:38;;;;;;;1.30;1.20;;;16.00;99.90;;;;;;4957875;28;20188;-67
2021/08/28 07:06:03;;;;;;;1.30;1.20;;;16.20;99.90;;;;;;4957368;28;20675;-69
2021/08/28 07:08:29;;;;;;;1.58;1.48;;;16.40;99.90;;;;;;4959527;28;20185;-68
2021/08/28 07:10:55;;;;;;;1.42;1.23;;;16.40;99.90;;;;;;4957913;28;20177;-65
2021/08/28 07:13:22;;;;;;;1.23;1.13;;;16.60;99.90;;;;;;4956191;28;20200;-68
2021/08/28 07:15:48;;;;;;;1.25;1.08;;;16.90;99.90;;;;;;4969430;28;20653;-66
2021/08/28 07:18:15;;;;;;;1.10;1.00;;;17.00;99.90;;;;;;4953694;28;20192;-66
2021/08/28 07:20:41;;;;;;;2.35;1.17;;;17.00;99.90;;;;;;4952145;28;20193;-67
2021/08/28 07:23:07;;;;;;;1.20;1.10;;;17.20;99.90;;;;;;4951866;28;20226;-67
2021/08/28 07:25:39;;;;;;;1.25;0.88;;;17.40;99.90;;;;;;4952606;28;20259;-68
2021/08/28 07:28:10;;;;;;;0.98;0.93;;;17.70;99.90;;;;;;4952255;28;20305;-66
2021/08/28 07:30:36;;;;;;;0.90;0.90;;;18.00;99.90;;;;;;4956877;28;20188;-68
2021/08/28 07:33:02;;;;;;;0.70;0.70;;;18.10;99.90;;;;;;4948130;28;20554;-68
2021/08/28 07:35:30;;;;;;;1.15;0.80;;;18.50;99.90;;;;;;4956598;28;20953;-67
2021/08/28 07:37:55;;;;;;;0.70;0.70;;;18.50;99.90;;;;;;4950485;28;20228;-65
2021/08/28 07:40:23;;;;;;;0.95;0.80;;;18.30;99.90;;;;;;4948385;28;20205;-67
2021/08/28 07:42:57;;;;;;;0.57;0.57;;;18.30;99.90;;;;;;4953449;28;20174;-67
2021/08/28 07:45:24;;;;;;;0.63;0.63;;;18.30;99.90;;;;;;4952258;28;20201;-67
2021/08/28 07:47:50;;;;;;;1.00;0.65;;;18.30;99.90;;;;;;4948414;28;20213;-68
2021/08/28 07:50:17;;;;;;;0.70;0.70;;;18.20;99.90;;;;;;4948707;28;20193;-68
2021/08/28 07:52:43;;;;;;;0.70;0.70;;;18.10;99.90;;;;;;4952172;28;20193;-66
2021/08/28 07:55:10;;;;;;;0.70;0.70;;;18.30;99.90;;;;;;4950523;28;20190;-68
2021/08/28 07:57:38;;;;;;;0.50;0.50;;;18.30;99.90;;;;;;4950623;28;20209;-69
2021/08/28 08:00:05;;;;;;;0.55;0.55;;;18.40;99.90;;;;;;4967805;28;20213;-67
2021/08/28 08:02:31;;;;;;;0.50;0.50;;;18.70;99.90;;;;;;4952452;28;20655;-67
2021/08/28 08:04:57;;;;;;;0.50;0.50;;;18.50;99.90;;;;;;4949757;28;20277;-68
2021/08/28 08:07:22;;;;;;;0.52;0.52;;;18.30;99.90;;;;;;4948997;28;21080;-70
2021/08/28 08:09:48;;;;;;;0.95;0.50;;;18.10;99.90;;;;;;4949995;28;20225;-67
2021/08/28 08:12:14;;;;;;;0.70;0.70;;;17.90;99.90;;;;;;4947722;28;20200;-67
2021/08/28 08:14:40;;;;;;;0.60;0.47;;;17.80;99.90;;;;;;4949870;28;20994;-69
2021/08/28 08:17:05;;;;;;;1.10;0.60;;;17.70;99.90;;;;;;4950896;28;20324;-67
2021/08/28 08:19:31;;;;;;;0.73;0.50;;;17.50;99.90;;;;;;4952123;28;20225;-67
2021/08/28 08:21:57;;;;;;;0.63;0.50;;;17.70;99.90;;;;;;4949972;28;20273;-68
2021/08/28 08:24:23;;;;;;;1.42;0.75;;;17.90;99.90;;;;;;4947231;28;20186;-68
2021/08/28 08:26:49;;;;;;;0.30;0.30;;;18.10;99.90;;;;;;4950663;28;20216;-67
2021/08/28 08:29:14;;;;;;;0.50;0.50;;;18.30;99.90;;;;;;4947369;28;20193;-67
2021/08/28 08:31:40;;;;;;;0.68;0.43;;;18.60;99.90;;;;;;4948495;28;20193;-68
2021/08/28 08:34:05;;;;;;;0.40;0.40;;;18.90;99.90;;;;;;4947957;28;20193;-67
2021/08/28 08:36:31;;;;;;;0.47;0.47;;;19.20;99.90;;;;;;4960665;28;20255;-67
2021/08/28 08:38:57;;;;;;;0.50;0.40;;;19.30;99.90;;;;;;4949330;28;20209;-68
2021/08/28 08:41:24;;;;;;;1.25;0.70;;;19.40;99.90;;;;;;4952354;28;20185;-67
2021/08/28 08:43:55;;;;;;;0.85;0.40;;;19.40;99.90;;;;;;4948008;28;20213;-67
2021/08/28 08:46:22;;;;;;;0.45;0.40;;;19.30;99.90;;;;;;4951406;28;20700;-66
2021/08/28 08:48:49;;;;;;;0.35;0.35;;;19.30;99.90;;;;;;4947426;28;20283;-68
2021/08/28 08:51:17;;;;;;;0.30;0.30;;;19.20;99.90;;;;;;4962407;28;20193;-68
2021/08/28 08:53:44;;;;;;;0.85;0.65;;;19.10;99.90;;;;;;4952248;28;20219;-67
2021/08/28 08:56:10;;;;;;;4.05;1.67;;;19.10;99.90;;;;;;4962019;28;21246;-70
2021/08/28 08:58:37;;;;;;;2.33;1.65;;;19.00;99.90;;;;;;4947450;28;20201;-67
2021/08/28 09:01:04;;;;;;;1.13;0.70;;;19.10;99.90;;;;;;4952577;28;20551;-69
2021/08/28 09:03:29;;;;;;;3.83;2.30;;;19.10;99.90;;;;;;4950801;28;20626;-67
2021/08/28 09:05:55;;;;;;;5.35;2.63;;;19.10;99.90;;;;;;4956345;28;20196;-67
2021/08/28 09:08:21;;;;;;;1.83;1.25;;;19.40;99.90;;;;;;4949655;28;20252;-66
2021/08/28 09:10:46;;;;;;;0.43;0.43;;;19.50;99.90;;;;;;4945391;28;21065;-67
2021/08/28 09:13:18;;;;;;;0.43;0.40;;;19.30;99.90;;;;;;4953892;28;20692;-69
2021/08/28 09:15:58;;;;;;;0.40;0.40;;;19.10;99.90;;;;;;4962980;28;20687;-68
2021/08/28 09:18:24;;;;;;;0.63;0.40;;;19.10;99.90;;;;;;4949432;28;20248;-66
2021/08/28 09:20:50;;;;;;;0.55;0.32;;;19.40;99.90;;;;;;4948472;28;20188;-68
2021/08/28 09:23:18;;;;;;;0.47;0.45;;;19.60;99.90;;;;;;4955427;28;20186;-66
2021/08/28 09:25:48;;;;;;;0.60;0.45;;;19.90;99.90;;;;;;4956619;28;20247;-70
2021/08/28 09:28:14;;;;;;;9.02;3.65;;;19.90;99.90;;;;;;4955359;28;20181;-67
2021/08/28 09:30:49;;;;;;;1.83;1.17;;;20.10;99.90;;;;;;4950724;28;20559;-68
2021/08/28 09:33:23;;;;;;;0.30;0.30;;;20.20;99.90;;;;;;4957751;28;20189;-67
2021/08/28 09:35:51;;;;;;;0.50;0.50;;;19.70;99.90;;;;;;4963880;28;20188;-67
2021/08/28 09:38:19;;;;;;;1.13;0.60;;;19.30;99.90;;;;;;4952766;28;20185;-68
2021/08/28 09:40:47;;;;;;;0.70;0.60;;;19.00;99.90;;;;;;4954021;28;20213;-70
2021/08/28 09:43:18;;;;;;;0.30;0.30;;;18.90;99.90;;;;;;4949665;28;20197;-67
2021/08/28 09:45:46;;;;;;;0.63;0.40;;;18.60;99.90;;;;;;4952897;28;20260;-70
2021/08/28 09:48:13;;;;;;;0.40;0.40;;;18.40;99.90;;;;;;4950882;28;20202;-66
2021/08/28 09:50:40;;;;;;;0.40;0.40;;;18.40;99.90;;;;;;4959866;28;20272;-67
2021/08/28 09:53:17;;;;;;;0.45;0.45;;;18.40;99.90;;;;;;4954122;28;20195;-67
2021/08/28 09:55:43;;;;;;;1.15;0.60;;;18.40;99.90;;;;;;4955648;28;20283;-70
2021/08/28 09:58:11;;;;;;;0.40;0.40;;;18.40;99.90;;;;;;4953930;28;20200;-67
2021/08/28 10:00:44;;;;;;;0.50;0.50;;;18.40;99.90;;;;;;4949818;28;20213;-68
2021/08/28 10:03:10;;;;;;;0.60;0.50;;;18.30;99.90;;;;;;4946865;28;20645;-69
2021/08/28 10:05:38;;;;;;;0.85;0.40;;;18.30;99.90;;;;;;4952624;28;20192;-69
2021/08/28 10:08:07;;;;;;;0.68;0.68;;;18.40;99.90;;;;;;4956543;28;20210;-66
2021/08/28 10:10:35;;;;;;;1.38;0.57;;;18.60;99.90;;;;;;4956626;28;20251;-69
2021/08/28 10:13:03;;;;;;;0.77;0.60;;;18.70;99.90;;;;;;4952512;28;20189;-68
2021/08/28 10:15:32;;;;;;;0.70;0.70;;;19.00;99.90;;;;;;4957380;28;20181;-69
2021/08/28 10:17:59;;;;;;;0.40;0.40;;;19.20;99.90;;;;;;4954915;28;20213;-70
2021/08/28 10:20:27;;;;;;;0.35;0.35;;;19.30;99.90;;;;;;4947823;28;20297;-69
2021/08/28 10:22:56;;;;;;;0.40;0.40;;;19.40;99.90;;;;;;4960196;28;20272;-71
2021/08/28 10:25:24;;;;;;;0.30;0.30;;;19.40;99.90;;;;;;4965088;28;20197;-70
2021/08/28 10:27:51;;;;;;;1.67;0.85;;;19.50;99.90;;;;;;4945845;28;20221;-67
2021/08/28 10:30:20;;;;;;;0.40;0.30;;;19.60;99.90;;;;;;4961435;28;20189;-68
2021/08/28 10:32:46;;;;;;;0.50;0.50;;;19.60;99.90;;;;;;4953493;28;20185;-68
2021/08/28 10:35:13;;;;;;;0.40;0.40;;;19.60;99.90;;;;;;4968135;28;20259;-69
2021/08/28 10:37:39;;;;;;;0.60;0.50;;;19.50;99.90;;;;;;4957916;28;20291;-71
2021/08/28 10:40:14;;;;;;;0.60;0.50;;;19.70;99.90;;;;;;4954644;28;20317;-68
2021/08/28 10:42:41;;;;;;;0.40;0.40;;;19.80;99.90;;;;;;4948217;28;20275;-69
2021/08/28 10:45:09;;;;;;;0.50;0.40;;;19.70;99.90;;;;;;4952199;28;20188;-70
2021/08/28 10:47:34;;;;;;;1.20;0.55;;;19.90;99.90;;;;;;4956946;28;20223;-69
2021/08/28 10:50:09;;;;;;;0.25;0.25;;;20.10;99.90;;;;;;4956408;28;20644;-69
2021/08/28 10:52:37;;;;;;;1.33;0.60;;;20.10;99.90;;;;;;4952260;28;20185;-69
2021/08/28 10:55:09;;;;;;;0.57;0.50;;;20.10;99.90;;;;;;4952999;28;20190;-67
2021/08/28 10:57:35;;;;;;;0.65;0.57;;;20.20;99.90;;;;;;4959027;28;20332;-69
2021/08/28 11:00:14;;;;;;;0.80;0.77;;;20.20;99.90;;;;;;4953651;28;20212;-66
2021/08/28 11:02:53;;;;;;;0.70;0.60;;;20.30;99.90;;;;;;4958164;28;20244;-67
2021/08/28 11:05:26;;;;;;;0.85;0.60;;;20.50;99.90;;;;;;4957601;28;20295;-68
2021/08/28 11:07:53;;;;;;;0.40;0.40;;;20.70;99.90;;;;;;4955900;28;20204;-68
2021/08/28 11:10:21;;;;;;;0.60;0.60;;;20.70;99.90;;;;;;4962557;28;20200;-67
2021/08/28 11:12:51;;;;;;;0.60;0.60;;;20.50;99.90;;;;;;4972445;28;20190;-70
2021/08/28 11:15:31;;;;;;;0.40;0.40;;;20.50;99.90;;;;;;4963595;28;20343;-67
2021/08/28 11:18:04;;;;;;;0.75;0.40;;;20.80;99.90;;;;;;4956164;28;20340;-68
2021/08/28 11:20:42;;;;;;;0.47;0.47;;;20.90;99.90;;;;;;4960446;28;20213;-69
2021/08/28 11:23:21;;;;;;;0.52;0.40;;;21.10;99.90;;;;;;4962523;28;20205;-69
2021/08/28 11:25:49;;;;;;;0.50;0.50;;;20.90;99.90;;;;;;4956613;28;20190;-69
2021/08/28 11:28:20;;;;;;;0.55;0.50;;;20.70;99.90;;;;;;4957746;28;20197;-68
2021/08/28 11:30:46;;;;;;;0.50;0.50;;;20.60;99.90;;;;;;4959768;28;20543;-68
2021/08/28 11:33:16;;;;;;;0.38;0.38;;;20.50;99.90;;;;;;4972165;28;20197;-68
2021/08/28 11:35:47;;;;;;;1.02;0.43;;;20.50;99.90;;;;;;4955219;28;20316;-66
2021/08/28 11:38:13;;;;;;;0.65;0.60;;;20.50;99.90;;;;;;4959754;28;20658;-69
2021/08/28 11:40:40;;;;;;;0.60;0.60;;;20.50;99.90;;;;;;4952065;28;20210;-67
2021/08/28 11:43:09;;;;;;;0.68;0.50;;;20.50;99.90;;;;;;4956036;28;20189;-66
2021/08/28 11:45:40;;;;;;;0.60;0.60;;;20.40;99.90;;;;;;4959490;28;20191;-69
2021/08/28 11:48:08;;;;;;;0.50;0.47;;;20.40;99.90;;;;;;4954823;28;20639;-66
2021/08/28 11:50:34;;;;;;;0.40;0.40;;;20.70;99.90;;;;;;4969841;28;20854;-65
2021/08/28 11:53:00;;;;;;;0.40;0.40;;;20.90;99.90;;;;;;4956450;28;20189;-67
2021/08/28 11:55:27;;;;;;;0.60;0.50;;;21.00;99.90;;;;;;4950950;28;20260;-66
2021/08/28 11:58:05;;;;;;;0.50;0.50;;;21.20;99.90;;;;;;4950407;28;20210;-68
2021/08/28 12:00:33;;;;;;;1.02;0.70;;;21.50;99.90;;;;;;4948679;28;20657;-68
2021/08/28 12:02:59;;;;;;;0.90;0.68;;;21.70;99.90;;;;;;4953135;28;20177;-66
2021/08/28 12:05:28;;;;;;;0.70;0.70;;;21.60;99.90;;;;;;4952583;28;20185;-69
2021/08/28 12:07:54;;;;;;;1.00;0.90;;;21.80;99.90;;;;;;4951064;28;20204;-68
2021/08/28 12:10:21;;;;;;;1.00;0.80;;;22.00;99.90;;;;;;4957542;28;20199;-67
2021/08/28 12:12:57;;;;;;;0.63;0.63;;;22.40;99.90;;;;;;4963276;28;20633;-68
2021/08/28 12:15:24;;;;;;;0.80;0.80;;;22.50;99.90;;;;;;4953562;28;20291;-66
2021/08/28 12:17:51;;;;;;;0.90;0.70;;;22.20;99.90;;;;;;4956884;28;20272;-69
2021/08/28 12:20:32;;;;;;;0.70;0.65;;;21.50;99.90;;;;;;4954387;28;20205;-69
2021/08/28 12:23:00;;;;;;;0.63;0.63;;;21.10;99.90;;;;;;4954356;28;20359;-69
2021/08/28 12:25:27;;;;;;;0.77;0.60;;;20.70;99.90;;;;;;4956356;28;20202;-66
2021/08/28 12:27:53;;;;;;;0.77;0.77;;;20.60;99.90;;;;;;4976512;28;20213;-68
2021/08/28 12:30:21;;;;;;;0.75;0.63;;;20.40;99.90;;;;;;4959740;28;20256;-68
2021/08/28 12:32:47;;;;;;;0.77;0.77;;;20.50;99.90;;;;;;4952959;28;20188;-68
2021/08/28 12:35:13;;;;;;;1.17;1.08;;;20.70;99.90;;;;;;4952337;28;20181;-67
2021/08/28 12:37:39;;;;;;;0.70;0.70;;;20.90;99.90;;;;;;4967815;28;20681;-67
2021/08/28 12:40:14;;;;;;;0.50;0.50;;;21.00;99.90;;;;;;4948298;28;20679;-65
2021/08/28 12:42:43;;;;;;;0.65;0.65;;;21.20;99.90;;;;;;4957591;28;20208;-67
2021/08/28 12:45:11;;;;;;;0.70;0.70;;;21.40;99.90;;;;;;4956200;28;20192;-67
2021/08/28 12:47:40;;;;;;;1.20;0.63;;;21.60;99.90;;;;;;4956166;28;20288;-67
2021/08/28 12:50:09;;;;;;;0.60;0.60;;;21.90;99.90;;;;;;4957244;28;20265;-69